sensor_id;sensor_type;location;lat;lon;timestamp;pressure;altitude;pressure_sealevel;temperature;humidity
19236;BME280;9752;54.270;12.470;2023-04-22T00:01:30;101910.94;;;2.82;100.00
19236;BME280;9752;54.270;12.470;2023-04-22T00:06:33;101915.53;;;2.61;100.00
19236;BME280;9752;54.270;12.470;2023-04-22T00:11:35;101915.88;;;2.64;100.00
19236;BME280;9752;54.270;12.470;2023-04-22T00:16:37;101922.56;;;2.71;100.00
19236;BME280;9752;54.270;12.470;2023-04-22T00:21:40;101920.84;;;2.79;100.00
19236;BME280;9752;54.270;12.470;2023-04-22T00:26:42;101929.34;;;2.70;100.00
19236;BME280;9752;54.270;12.470;2023-04-22T00:31:44;101947.16;;;2.62;100.00
19236;BME280;9752;54.270;12.470;2023-04-22T00:36:47;101941.41;;;2.48;100.00
19236;BME280;9752;54.270;12.470;2023-04-22T00:41:49;101944.78;;;2.17;100.00
19236;BME280;9752;54.270;12.470;2023-04-22T00:46:51;101953.31;;;2.02;100.00
19236;BME280;9752;54.270;12.470;2023-04-22T00:51:54;101942.31;;;2.03;100.00
19236;BME280;9752;54.270;12.470;2023-04-22T00:56:56;101950.81;;;2.18;100.00
19236;BME280;9752;54.270;12.470;2023-04-22T01:01:58;101945.75;;;2.10;100.00
19236;BME280;9752;54.270;12.470;2023-04-22T01:07:02;101951.47;;;2.01;100.00
19236;BME280;9752;54.270;12.470;2023-04-22T01:12:04;101953.50;;;2.03;100.00
19236;BME280;9752;54.270;12.470;2023-04-22T01:17:05;101959.25;;;2.17;100.00
19236;BME280;9752;54.270;12.470;2023-04-22T01:22:11;101984.44;;;2.21;100.00
19236;BME280;9752;54.270;12.470;2023-04-22T01:27:15;101986.44;;;2.23;100.00
19236;BME280;9752;54.270;12.470;2023-04-22T01:32:17;101988.78;;;2.29;100.00
19236;BME280;9752;54.270;12.470;2023-04-22T01:37:19;101996.59;;;2.38;100.00
19236;BME280;9752;54.270;12.470;2023-04-22T01:42:22;102013.97;;;2.33;100.00
19236;BME280;9752;54.270;12.470;2023-04-22T01:47:24;102019.09;;;2.33;100.00
19236;BME280;9752;54.270;12.470;2023-04-22T01:52:27;102020.94;;;2.34;100.00
19236;BME280;9752;54.270;12.470;2023-04-22T01:57:30;102033.91;;;2.36;100.00
19236;BME280;9752;54.270;12.470;2023-04-22T02:02:32;102041.88;;;2.46;100.00
19236;BME280;9752;54.270;12.470;2023-04-22T02:07:34;102054.22;;;2.34;100.00
19236;BME280;9752;54.270;12.470;2023-04-22T02:12:37;102053.53;;;2.28;100.00
19236;BME280;9752;54.270;12.470;2023-04-22T02:17:41;102053.09;;;2.09;100.00
19236;BME280;9752;54.270;12.470;2023-04-22T02:22:43;102062.78;;;2.04;100.00
19236;BME280;9752;54.270;12.470;2023-04-22T02:27:47;102062.59;;;2.03;100.00
19236;BME280;9752;54.270;12.470;2023-04-22T02:32:49;102080.72;;;1.97;100.00
19236;BME280;9752;54.270;12.470;2023-04-22T02:37:52;102083.34;;;1.83;100.00
19236;BME280;9752;54.270;12.470;2023-04-22T02:42:57;102084.63;;;1.86;100.00
19236;BME280;9752;54.270;12.470;2023-04-22T02:47:59;102101.44;;;1.84;100.00
19236;BME280;9752;54.270;12.470;2023-04-22T02:53:01;102114.59;;;1.80;100.00
19236;BME280;9752;54.270;12.470;2023-04-22T02:58:04;102126.28;;;1.78;100.00
19236;BME280;9752;54.270;12.470;2023-04-22T03:03:05;102129.00;;;1.94;100.00
19236;BME280;9752;54.270;12.470;2023-04-22T03:08:08;102137.66;;;2.18;100.00
19236;BME280;9752;54.270;12.470;2023-04-22T03:13:12;102163.09;;;2.16;100.00
19236;BME280;9752;54.270;12.470;2023-04-22T03:18:15;102172.22;;;2.21;100.00
19236;BME280;9752;54.270;12.470;2023-04-22T03:23:18;102176.25;;;2.19;100.00
19236;BME280;9752;54.270;12.470;2023-04-22T03:28:21;102183.94;;;2.12;100.00
19236;BME280;9752;54.270;12.470;2023-04-22T03:33:23;102192.38;;;2.11;100.00
19236;BME280;9752;54.270;12.470;2023-04-22T03:38:33;102196.75;;;2.12;100.00
19236;BME280;9752;54.270;12.470;2023-04-22T03:43:37;102200.44;;;2.07;100.00
19236;BME280;9752;54.270;12.470;2023-04-22T03:48:42;102200.06;;;2.04;100.00
19236;BME280;9752;54.270;12.470;2023-04-22T03:53:51;102194.59;;;2.01;100.00
19236;BME280;9752;54.270;12.470;2023-04-22T03:58:57;102200.78;;;2.03;100.00
19236;BME280;9752;54.270;12.470;2023-04-22T04:03:59;102208.81;;;2.13;100.00
19236;BME280;9752;54.270;12.470;2023-04-22T04:09:12;102209.53;;;2.12;100.00
19236;BME280;9752;54.270;12.470;2023-04-22T04:14:15;102223.97;;;2.19;100.00
19236;BME280;9752;54.270;12.470;2023-04-22T04:19:20;102225.97;;;2.28;100.00
19236;BME280;9752;54.270;12.470;2023-04-22T04:24:22;102233.44;;;2.34;100.00
19236;BME280;9752;54.270;12.470;2023-04-22T04:29:28;102245.84;;;2.45;100.00
19236;BME280;9752;54.270;12.470;2023-04-22T04:34:39;102255.31;;;2.53;100.00
19236;BME280;9752;54.270;12.470;2023-04-22T04:39:42;102245.94;;;2.61;100.00
19236;BME280;9752;54.270;12.470;2023-04-22T04:44:46;102255.06;;;2.73;100.00
19236;BME280;9752;54.270;12.470;2023-04-22T04:49:52;102266.16;;;2.88;100.00
19236;BME280;9752;54.270;12.470;2023-04-22T04:54:54;102270.28;;;3.02;100.00
19236;BME280;9752;54.270;12.470;2023-04-22T04:59:57;102281.31;;;3.24;100.00
19236;BME280;9752;54.270;12.470;2023-04-22T05:05:00;102304.78;;;3.50;100.00
19236;BME280;9752;54.270;12.470;2023-04-22T05:10:03;102317.38;;;3.79;100.00
19236;BME280;9752;54.270;12.470;2023-04-22T05:15:08;102328.41;;;4.01;100.00
19236;BME280;9752;54.270;12.470;2023-04-22T05:20:11;102340.66;;;4.27;100.00
19236;BME280;9752;54.270;12.470;2023-04-22T05:25:14;102346.56;;;4.58;100.00
19236;BME280;9752;54.270;12.470;2023-04-22T05:30:27;102351.84;;;4.91;100.00
19236;BME280;9752;54.270;12.470;2023-04-22T05:35:28;102360.44;;;5.23;100.00
19236;BME280;9752;54.270;12.470;2023-04-22T05:40:32;102381.03;;;5.64;100.00
19236;BME280;9752;54.270;12.470;2023-04-22T05:45:37;102358.78;;;6.14;100.00
19236;BME280;9752;54.270;12.470;2023-04-22T05:50:41;102351.34;;;6.68;100.00
19236;BME280;9752;54.270;12.470;2023-04-22T05:55:43;102321.50;;;7.13;100.00
19236;BME280;9752;54.270;12.470;2023-04-22T06:00:46;102284.63;;;7.68;100.00
19236;BME280;9752;54.270;12.470;2023-04-22T06:06:07;102236.97;;;8.20;100.00
19236;BME280;9752;54.270;12.470;2023-04-22T06:11:09;102189.47;;;8.66;100.00
19236;BME280;9752;54.270;12.470;2023-04-22T06:16:12;102108.28;;;9.14;100.00
19236;BME280;9752;54.270;12.470;2023-04-22T06:21:14;102013.31;;;9.54;100.00
19236;BME280;9752;54.270;12.470;2023-04-22T06:26:16;101934.63;;;9.84;100.00
19236;BME280;9752;54.270;12.470;2023-04-22T06:31:19;101847.19;;;10.26;100.00
19236;BME280;9752;54.270;12.470;2023-04-22T06:36:20;101771.47;;;10.64;100.00
19236;BME280;9752;54.270;12.470;2023-04-22T06:41:28;101717.22;;;11.02;100.00
19236;BME280;9752;54.270;12.470;2023-04-22T06:46:37;101636.22;;;11.31;100.00
19236;BME280;9752;54.270;12.470;2023-04-22T06:51:38;101594.13;;;11.74;100.00
19236;BME280;9752;54.270;12.470;2023-04-22T06:56:41;101564.59;;;11.99;100.00
19236;BME280;9752;54.270;12.470;2023-04-22T07:01:44;101544.16;;;12.30;100.00
19236;BME280;9752;54.270;12.470;2023-04-22T07:06:46;101466.72;;;12.67;100.00
19236;BME280;9752;54.270;12.470;2023-04-22T07:11:48;101462.75;;;12.87;100.00
19236;BME280;9752;54.270;12.470;2023-04-22T07:16:54;101453.84;;;13.27;100.00
19236;BME280;9752;54.270;12.470;2023-04-22T07:21:56;101453.91;;;13.72;100.00
19236;BME280;9752;54.270;12.470;2023-04-22T07:26:57;101452.19;;;13.87;100.00
19236;BME280;9752;54.270;12.470;2023-04-22T07:32:00;101457.41;;;14.18;100.00
19236;BME280;9752;54.270;12.470;2023-04-22T07:37:02;101458.97;;;14.46;100.00
19236;BME280;9752;54.270;12.470;2023-04-22T07:42:04;101456.66;;;14.83;100.00
19236;BME280;9752;54.270;12.470;2023-04-22T07:47:08;101449.94;;;15.21;100.00
19236;BME280;9752;54.270;12.470;2023-04-22T07:52:10;101445.16;;;15.31;100.00
19236;BME280;9752;54.270;12.470;2023-04-22T07:57:11;101441.13;;;15.54;100.00
19236;BME280;9752;54.270;12.470;2023-04-22T08:02:14;101434.66;;;15.64;100.00
19236;BME280;9752;54.270;12.470;2023-04-22T08:07:16;101424.25;;;15.65;100.00
19236;BME280;9752;54.270;12.470;2023-04-22T08:12:18;101417.47;;;16.05;100.00
19236;BME280;9752;54.270;12.470;2023-04-22T08:17:20;101414.66;;;16.00;100.00
19236;BME280;9752;54.270;12.470;2023-04-22T08:22:22;101405.88;;;16.17;100.00
19236;BME280;9752;54.270;12.470;2023-04-22T08:27:24;101408.50;;;16.37;100.00
19236;BME280;9752;54.270;12.470;2023-04-22T08:32:27;101397.88;;;16.71;100.00
19236;BME280;9752;54.270;12.470;2023-04-22T08:37:29;101390.78;;;16.88;100.00
19236;BME280;9752;54.270;12.470;2023-04-22T08:42:31;101386.56;;;16.92;100.00
19236;BME280;9752;54.270;12.470;2023-04-22T08:47:36;101378.47;;;17.07;100.00
19236;BME280;9752;54.270;12.470;2023-04-22T08:52:38;101385.00;;;17.36;100.00
19236;BME280;9752;54.270;12.470;2023-04-22T08:57:40;101382.78;;;17.47;100.00
19236;BME280;9752;54.270;12.470;2023-04-22T09:02:43;101380.22;;;17.69;100.00
19236;BME280;9752;54.270;12.470;2023-04-22T09:07:47;101364.97;;;17.82;100.00
19236;BME280;9752;54.270;12.470;2023-04-22T09:12:49;101364.97;;;18.03;100.00
19236;BME280;9752;54.270;12.470;2023-04-22T09:17:53;101371.03;;;18.24;100.00
19236;BME280;9752;54.270;12.470;2023-04-22T09:22:55;101366.41;;;18.41;100.00
19236;BME280;9752;54.270;12.470;2023-04-22T09:27:58;101347.56;;;18.77;100.00
19236;BME280;9752;54.270;12.470;2023-04-22T09:33:03;101344.44;;;18.87;100.00
19236;BME280;9752;54.270;12.470;2023-04-22T09:38:06;101342.84;;;18.91;100.00
19236;BME280;9752;54.270;12.470;2023-04-22T09:43:08;101331.69;;;19.24;100.00
19236;BME280;9752;54.270;12.470;2023-04-22T09:48:13;101335.72;;;19.14;100.00
19236;BME280;9752;54.270;12.470;2023-04-22T09:53:17;101322.44;;;19.37;100.00
19236;BME280;9752;54.270;12.470;2023-04-22T09:58:19;101319.75;;;19.34;100.00
19236;BME280;9752;54.270;12.470;2023-04-22T10:03:24;101308.78;;;19.47;100.00
19236;BME280;9752;54.270;12.470;2023-04-22T10:08:26;101297.03;;;19.64;100.00
19236;BME280;9752;54.270;12.470;2023-04-22T10:13:27;101288.72;;;20.08;100.00
19236;BME280;9752;54.270;12.470;2023-04-22T10:18:32;101285.75;;;19.96;100.00
19236;BME280;9752;54.270;12.470;2023-04-22T10:23:34;101277.88;;;20.27;100.00
19236;BME280;9752;54.270;12.470;2023-04-22T10:28:41;101272.94;;;20.40;100.00
19236;BME280;9752;54.270;12.470;2023-04-22T10:33:45;101265.63;;;20.29;100.00
19236;BME280;9752;54.270;12.470;2023-04-22T10:39:13;101259.31;;;20.56;100.00
19236;BME280;9752;54.270;12.470;2023-04-22T10:44:15;101258.00;;;20.71;100.00
19236;BME280;9752;54.270;12.470;2023-04-22T10:49:20;101247.59;;;20.77;100.00
19236;BME280;9752;54.270;12.470;2023-04-22T10:54:56;101237.53;;;20.95;100.00
19236;BME280;9752;54.270;12.470;2023-04-22T10:59:59;101235.53;;;21.21;100.00
19236;BME280;9752;54.270;12.470;2023-04-22T11:05:19;101239.53;;;21.05;100.00
19236;BME280;9752;54.270;12.470;2023-04-22T11:10:36;101227.25;;;21.08;100.00
19236;BME280;9752;54.270;12.470;2023-04-22T11:15:42;101219.72;;;21.23;100.00
19236;BME280;9752;54.270;12.470;2023-04-22T11:20:46;101208.03;;;21.91;100.00
19236;BME280;9752;54.270;12.470;2023-04-22T11:25:53;101207.66;;;21.72;100.00
19236;BME280;9752;54.270;12.470;2023-04-22T11:31:03;101216.44;;;21.71;100.00
19236;BME280;9752;54.270;12.470;2023-04-22T11:36:09;101206.63;;;21.66;100.00
19236;BME280;9752;54.270;12.470;2023-04-22T11:41:10;101203.47;;;21.82;100.00
19236;BME280;9752;54.270;12.470;2023-04-22T11:46:12;101197.34;;;21.84;100.00
19236;BME280;9752;54.270;12.470;2023-04-22T11:51:16;101186.63;;;22.22;100.00
19236;BME280;9752;54.270;12.470;2023-04-22T11:56:19;101193.25;;;21.99;100.00
19236;BME280;9752;54.270;12.470;2023-04-22T12:01:21;101190.41;;;22.34;100.00
19236;BME280;9752;54.270;12.470;2023-04-22T12:06:29;101194.03;;;22.39;100.00
19236;BME280;9752;54.270;12.470;2023-04-22T12:11:32;101181.28;;;22.19;94.02
19236;BME280;9752;54.270;12.470;2023-04-22T12:16:39;101185.66;;;22.17;93.68
19236;BME280;9752;54.270;12.470;2023-04-22T12:21:42;101182.06;;;22.14;96.72
19236;BME280;9752;54.270;12.470;2023-04-22T12:26:44;101165.13;;;22.02;95.36
19236;BME280;9752;54.270;12.470;2023-04-22T12:31:45;101164.47;;;22.63;97.17
19236;BME280;9752;54.270;12.470;2023-04-22T12:36:49;101168.66;;;22.50;97.29
19236;BME280;9752;54.270;12.470;2023-04-22T12:41:50;101159.03;;;22.54;98.11
19236;BME280;9752;54.270;12.470;2023-04-22T12:46:52;101147.94;;;22.75;92.98
19236;BME280;9752;54.270;12.470;2023-04-22T12:51:55;101145.94;;;23.16;97.27
19236;BME280;9752;54.270;12.470;2023-04-22T12:56:57;101134.84;;;22.86;96.59
19236;BME280;9752;54.270;12.470;2023-04-22T13:01:58;101115.31;;;23.35;95.67
19236;BME280;9752;54.270;12.470;2023-04-22T13:07:01;101122.66;;;23.61;94.12
19236;BME280;9752;54.270;12.470;2023-04-22T13:12:03;101124.88;;;23.24;92.65
19236;BME280;9752;54.270;12.470;2023-04-22T13:17:05;101110.22;;;23.54;94.81
19236;BME280;9752;54.270;12.470;2023-04-22T13:22:08;101114.81;;;23.69;96.41
19236;BME280;9752;54.270;12.470;2023-04-22T13:27:10;101094.34;;;23.54;95.83
19236;BME280;9752;54.270;12.470;2023-04-22T13:32:11;101093.31;;;23.43;95.73
19236;BME280;9752;54.270;12.470;2023-04-22T13:37:15;101079.06;;;23.30;94.19
19236;BME280;9752;54.270;12.470;2023-04-22T13:42:18;101088.06;;;22.81;94.87
19236;BME280;9752;54.270;12.470;2023-04-22T13:47:20;101076.22;;;23.16;94.94
19236;BME280;9752;54.270;12.470;2023-04-22T13:52:23;101076.59;;;23.45;94.73
19236;BME280;9752;54.270;12.470;2023-04-22T13:57:25;101077.00;;;23.81;98.16
19236;BME280;9752;54.270;12.470;2023-04-22T14:02:26;101052.31;;;23.83;89.55
19236;BME280;9752;54.270;12.470;2023-04-22T14:07:29;101059.03;;;23.53;93.07
19236;BME280;9752;54.270;12.470;2023-04-22T14:12:31;101053.03;;;23.68;89.64
19236;BME280;9752;54.270;12.470;2023-04-22T14:17:33;101045.63;;;23.38;88.30
19236;BME280;9752;54.270;12.470;2023-04-22T14:22:36;101038.50;;;23.32;89.18
19236;BME280;9752;54.270;12.470;2023-04-22T14:27:37;101039.19;;;23.16;90.42
19236;BME280;9752;54.270;12.470;2023-04-22T14:32:39;101031.50;;;23.37;93.28
19236;BME280;9752;54.270;12.470;2023-04-22T14:37:42;101014.34;;;23.84;90.50
19236;BME280;9752;54.270;12.470;2023-04-22T14:42:44;100998.31;;;24.84;88.36
19236;BME280;9752;54.270;12.470;2023-04-22T14:47:46;100974.66;;;25.71;82.15
19236;BME280;9752;54.270;12.470;2023-04-22T14:52:49;100976.47;;;26.08;84.02
19236;BME280;9752;54.270;12.470;2023-04-22T14:57:53;100959.41;;;26.95;80.39
19236;BME280;9752;54.270;12.470;2023-04-22T15:02:56;100947.09;;;26.77;76.66
19236;BME280;9752;54.270;12.470;2023-04-22T15:07:59;100957.69;;;26.80;75.19
19236;BME280;9752;54.270;12.470;2023-04-22T15:13:01;100933.63;;;27.05;70.57
19236;BME280;9752;54.270;12.470;2023-04-22T15:18:03;100930.91;;;27.14;71.29
19236;BME280;9752;54.270;12.470;2023-04-22T15:23:07;100946.25;;;26.64;69.65
19236;BME280;9752;54.270;12.470;2023-04-22T15:28:08;100921.59;;;27.80;68.25
19236;BME280;9752;54.270;12.470;2023-04-22T15:33:10;100940.44;;;27.57;69.17
19236;BME280;9752;54.270;12.470;2023-04-22T15:38:13;100928.91;;;27.55;71.75
19236;BME280;9752;54.270;12.470;2023-04-22T15:43:14;100923.41;;;27.73;70.33
19236;BME280;9752;54.270;12.470;2023-04-22T15:48:16;100934.66;;;26.76;69.52
19236;BME280;9752;54.270;12.470;2023-04-22T15:53:19;100922.19;;;26.91;68.75
19236;BME280;9752;54.270;12.470;2023-04-22T15:58:21;100913.38;;;26.81;67.28
19236;BME280;9752;54.270;12.470;2023-04-22T16:03:22;100904.94;;;27.50;68.87
19236;BME280;9752;54.270;12.470;2023-04-22T16:08:25;100892.75;;;27.14;66.54
19236;BME280;9752;54.270;12.470;2023-04-22T16:13:27;100883.44;;;27.73;64.88
19236;BME280;9752;54.270;12.470;2023-04-22T16:18:29;100899.22;;;26.68;66.34
19236;BME280;9752;54.270;12.470;2023-04-22T16:23:32;100912.69;;;25.88;68.98
19236;BME280;9752;54.270;12.470;2023-04-22T16:28:35;100913.59;;;25.99;69.77
19236;BME280;9752;54.270;12.470;2023-04-22T16:33:37;100928.50;;;25.17;72.45
19236;BME280;9752;54.270;12.470;2023-04-22T16:38:39;100964.56;;;22.76;83.71
19236;BME280;9752;54.270;12.470;2023-04-22T16:43:41;100970.81;;;21.22;93.42
19236;BME280;9752;54.270;12.470;2023-04-22T16:48:43;100977.94;;;20.06;100.00
19236;BME280;9752;54.270;12.470;2023-04-22T16:53:46;100965.16;;;19.54;100.00
19236;BME280;9752;54.270;12.470;2023-04-22T16:58:48;100956.88;;;19.38;100.00
19236;BME280;9752;54.270;12.470;2023-04-22T17:03:50;100951.25;;;19.24;100.00
19236;BME280;9752;54.270;12.470;2023-04-22T17:08:53;100932.88;;;20.70;100.00
19236;BME280;9752;54.270;12.470;2023-04-22T17:13:55;100903.72;;;22.73;100.00
19236;BME280;9752;54.270;12.470;2023-04-22T17:18:57;100892.72;;;24.18;97.77
19236;BME280;9752;54.270;12.470;2023-04-22T17:24:00;100907.09;;;22.61;100.00
19236;BME280;9752;54.270;12.470;2023-04-22T17:29:04;100928.03;;;20.11;100.00
19236;BME280;9752;54.270;12.470;2023-04-22T17:34:05;100928.97;;;18.22;100.00
19236;BME280;9752;54.270;12.470;2023-04-22T17:39:08;100928.19;;;17.46;100.00
19236;BME280;9752;54.270;12.470;2023-04-22T17:44:11;100916.13;;;16.77;100.00
19236;BME280;9752;54.270;12.470;2023-04-22T17:49:12;100913.50;;;16.31;100.00
19236;BME280;9752;54.270;12.470;2023-04-22T17:54:15;100911.06;;;15.50;100.00
19236;BME280;9752;54.270;12.470;2023-04-22T17:59:17;100901.63;;;14.92;100.00
19236;BME280;9752;54.270;12.470;2023-04-22T18:04:19;100907.94;;;14.58;100.00
19236;BME280;9752;54.270;12.470;2023-04-22T18:09:22;100905.66;;;14.28;100.00
19236;BME280;9752;54.270;12.470;2023-04-22T18:14:24;100903.75;;;13.88;100.00
19236;BME280;9752;54.270;12.470;2023-04-22T18:19:26;100905.53;;;13.53;100.00
19236;BME280;9752;54.270;12.470;2023-04-22T18:24:30;100912.47;;;13.20;100.00
19236;BME280;9752;54.270;12.470;2023-04-22T18:29:31;100910.00;;;12.88;100.00
19236;BME280;9752;54.270;12.470;2023-04-22T18:34:33;100910.81;;;12.55;100.00
19236;BME280;9752;54.270;12.470;2023-04-22T18:39:36;100914.50;;;12.27;100.00
19236;BME280;9752;54.270;12.470;2023-04-22T18:44:38;100908.44;;;12.11;100.00
19236;BME280;9752;54.270;12.470;2023-04-22T18:49:40;100909.13;;;11.93;100.00
19236;BME280;9752;54.270;12.470;2023-04-22T18:54:43;100910.13;;;11.65;100.00
19236;BME280;9752;54.270;12.470;2023-04-22T18:59:45;100914.16;;;11.45;100.00
19236;BME280;9752;54.270;12.470;2023-04-22T19:04:50;100914.22;;;11.17;100.00
19236;BME280;9752;54.270;12.470;2023-04-22T19:09:58;100907.03;;;10.98;100.00
19236;BME280;9752;54.270;12.470;2023-04-22T19:14:59;100909.13;;;10.75;100.00
19236;BME280;9752;54.270;12.470;2023-04-22T19:20:01;100900.22;;;10.57;100.00
19236;BME280;9752;54.270;12.470;2023-04-22T19:25:07;100894.00;;;10.40;100.00
19236;BME280;9752;54.270;12.470;2023-04-22T19:30:10;100890.50;;;10.26;100.00
19236;BME280;9752;54.270;12.470;2023-04-22T19:35:12;100893.50;;;10.19;100.00
19236;BME280;9752;54.270;12.470;2023-04-22T19:40:17;100883.75;;;10.01;100.00
19236;BME280;9752;54.270;12.470;2023-04-22T19:45:19;100873.72;;;9.92;100.00
19236;BME280;9752;54.270;12.470;2023-04-22T19:50:24;100874.63;;;9.80;100.00
19236;BME280;9752;54.270;12.470;2023-04-22T19:55:29;100866.47;;;9.73;100.00
19236;BME280;9752;54.270;12.470;2023-04-22T20:00:31;100859.47;;;9.72;100.00
19236;BME280;9752;54.270;12.470;2023-04-22T20:05:33;100860.09;;;9.68;100.00
19236;BME280;9752;54.270;12.470;2023-04-22T20:10:36;100856.19;;;9.62;100.00
19236;BME280;9752;54.270;12.470;2023-04-22T20:15:39;100854.31;;;9.46;100.00
19236;BME280;9752;54.270;12.470;2023-04-22T20:20:41;100845.44;;;9.29;100.00
19236;BME280;9752;54.270;12.470;2023-04-22T20:25:46;100840.94;;;9.13;100.00
19236;BME280;9752;54.270;12.470;2023-04-22T20:30:49;100844.13;;;9.09;100.00
19236;BME280;9752;54.270;12.470;2023-04-22T20:35:51;100833.66;;;9.07;100.00
19236;BME280;9752;54.270;12.470;2023-04-22T20:40:55;100830.56;;;8.99;100.00
19236;BME280;9752;54.270;12.470;2023-04-22T20:45:57;100827.75;;;8.96;100.00
19236;BME280;9752;54.270;12.470;2023-04-22T20:50:59;100823.19;;;8.92;100.00
19236;BME280;9752;54.270;12.470;2023-04-22T20:56:03;100826.47;;;8.90;100.00
19236;BME280;9752;54.270;12.470;2023-04-22T21:01:07;100825.03;;;8.82;100.00
19236;BME280;9752;54.270;12.470;2023-04-22T21:06:09;100817.75;;;8.76;100.00
19236;BME280;9752;54.270;12.470;2023-04-22T21:11:13;100821.03;;;8.73;100.00
19236;BME280;9752;54.270;12.470;2023-04-22T21:16:17;100811.09;;;8.79;100.00
19236;BME280;9752;54.270;12.470;2023-04-22T21:21:21;100810.09;;;8.77;100.00
19236;BME280;9752;54.270;12.470;2023-04-22T21:26:26;100805.03;;;8.79;100.00
19236;BME280;9752;54.270;12.470;2023-04-22T21:31:28;100795.41;;;8.76;100.00
19236;BME280;9752;54.270;12.470;2023-04-22T21:36:30;100796.66;;;8.70;100.00
19236;BME280;9752;54.270;12.470;2023-04-22T21:41:34;100790.28;;;8.65;100.00
19236;BME280;9752;54.270;12.470;2023-04-22T21:46:36;100781.84;;;8.67;100.00
19236;BME280;9752;54.270;12.470;2023-04-22T21:51:37;100776.25;;;8.61;100.00
19236;BME280;9752;54.270;12.470;2023-04-22T21:56:41;100773.47;;;8.58;100.00
19236;BME280;9752;54.270;12.470;2023-04-22T22:01:42;100775.94;;;8.56;100.00
19236;BME280;9752;54.270;12.470;2023-04-22T22:06:44;100765.22;;;8.64;100.00
19236;BME280;9752;54.270;12.470;2023-04-22T22:11:47;100765.25;;;8.77;100.00
19236;BME280;9752;54.270;12.470;2023-04-22T22:16:49;100766.13;;;8.77;100.00
19236;BME280;9752;54.270;12.470;2023-04-22T22:21:52;100762.06;;;8.81;100.00
19236;BME280;9752;54.270;12.470;2023-04-22T22:26:55;100765.44;;;8.80;100.00
19236;BME280;9752;54.270;12.470;2023-04-22T22:31:57;100768.25;;;8.96;100.00
19236;BME280;9752;54.270;12.470;2023-04-22T22:36:59;100756.31;;;9.12;100.00
19236;BME280;9752;54.270;12.470;2023-04-22T22:42:02;100753.72;;;9.38;100.00
19236;BME280;9752;54.270;12.470;2023-04-22T22:47:04;100745.31;;;9.69;100.00
19236;BME280;9752;54.270;12.470;2023-04-22T22:52:06;100742.88;;;9.86;100.00
19236;BME280;9752;54.270;12.470;2023-04-22T22:57:09;100733.28;;;9.98;100.00
19236;BME280;9752;54.270;12.470;2023-04-22T23:02:11;100722.22;;;10.01;100.00
19236;BME280;9752;54.270;12.470;2023-04-22T23:07:14;100714.25;;;9.97;100.00
19236;BME280;9752;54.270;12.470;2023-04-22T23:12:17;100704.41;;;9.92;100.00
19236;BME280;9752;54.270;12.470;2023-04-22T23:17:19;100697.44;;;9.91;100.00
19236;BME280;9752;54.270;12.470;2023-04-22T23:22:22;100694.38;;;10.11;100.00
19236;BME280;9752;54.270;12.470;2023-04-22T23:27:25;100684.41;;;10.32;100.00
19236;BME280;9752;54.270;12.470;2023-04-22T23:32:27;100676.13;;;10.38;100.00
19236;BME280;9752;54.270;12.470;2023-04-22T23:37:32;100676.91;;;10.37;100.00
19236;BME280;9752;54.270;12.470;2023-04-22T23:42:36;100673.69;;;10.41;100.00
19236;BME280;9752;54.270;12.470;2023-04-22T23:47:38;100656.50;;;10.43;100.00
19236;BME280;9752;54.270;12.470;2023-04-22T23:52:40;100656.16;;;10.52;100.00
19236;BME280;9752;54.270;12.470;2023-04-22T23:57:44;100647.66;;;10.54;100.00
